Time;durP1;ratioP1;P1;durP2;ratioP2;P2;SDS_P1;SDS_P2;PMS_P1;PMS_P2;Temp;Humidity;BMP_temperature;BMP_pressure;BME280_temperature;BME280_humidity;BME280_pressure;Samples;Min_cycle;Max_cycle;Signal;HPM_P1;HPM_P2
2022/03/02 00:02:13;;;;;;;3.83;3.20;;;;;;;;;;7333631;19;154257;-15
2022/03/02 00:04:44;;;;;;;4.10;2.95;;;;;;;;;;7330332;19;153540;-14
2022/03/02 00:07:18;;;;;;;3.05;2.75;;;;;;;;;;7333322;19;162055;-14
2022/03/02 00:09:50;;;;;;;3.90;3.40;;;;;;;;;;7331775;19;162445;-14
2022/03/02 00:12:21;;;;;;;3.92;3.50;;;;;;;;;;7331535;19;154006;-15
2022/03/02 00:14:53;;;;;;;4.03;3.63;;;;;;;;;;7332086;19;154765;-15
2022/03/02 00:17:24;;;;;;;7.07;3.85;;;;;;;;;;7331014;19;161811;-15
2022/03/02 00:19:55;;;;;;;4.60;4.00;;;;;;;;;;7333015;19;162388;-14
2022/03/02 00:22:29;;;;;;;4.50;3.50;;;;;;;;;;7332354;19;154060;-14
2022/03/02 14:07:31;;;;;;;1.88;0.90;;;;;;;;;;7370844;19;132416;-13
2022/03/02 14:10:03;;;;;;;1.88;0.80;;;;;;;;;;7364989;19;153421;-14
2022/03/02 14:12:35;;;;;;;2.38;0.93;;;;;;;;;;7367504;19;161777;-13
2022/03/02 14:15:12;;;;;;;3.33;1.20;;;;;;;;;;7364097;19;162385;-14
2022/03/02 14:17:44;;;;;;;2.28;1.05;;;;;;;;;;7366726;19;153886;-13
2022/03/02 14:20:16;;;;;;;1.47;0.87;;;;;;;;;;7368779;19;153606;-13
2022/03/02 14:22:59;;;;;;;1.15;0.73;;;;;;;;;;7363345;19;162733;-15
2022/03/02 14:25:30;;;;;;;1.15;0.80;;;;;;;;;;7364119;19;162815;-14
2022/03/02 14:28:07;;;;;;;2.10;0.98;;;;;;;;;;7363156;19;153866;-14
2022/03/02 14:30:40;;;;;;;3.10;1.08;;;;;;;;;;7363099;19;153498;-21
2022/03/02 14:33:15;;;;;;;;;;;;;;;;;;7367588;19;161818;-14
2022/03/02 14:35:47;;;;;;;2.03;1.30;;;;;;;;;;7363041;19;162474;-16
2022/03/02 14:38:21;;;;;;;2.15;1.15;;;;;;;;;;7364145;19;154616;-17
2022/03/02 14:40:52;;;;;;;4.75;1.17;;;;;;;;;;7364190;19;153394;-15
2022/03/02 14:43:24;;;;;;;1.63;1.00;;;;;;;;;;7363531;19;162003;-15
2022/03/02 14:45:57;;;;;;;4.43;1.00;;;;;;;;;;7363601;19;162616;-15
2022/03/02 14:48:31;;;;;;;7.18;1.30;;;;;;;;;;7364150;19;153975;-15
2022/03/02 14:51:04;;;;;;;2.20;1.02;;;;;;;;;;7363871;19;153528;-14
2022/03/02 14:53:38;;;;;;;;;;;;;;;;;;7363926;19;161726;-15
2022/03/02 14:56:11;;;;;;;1.90;1.00;;;;;;;;;;7362586;19;162599;-15
2022/03/02 14:58:44;;;;;;;1.77;1.00;;;;;;;;;;7363752;19;153952;-14
2022/03/02 15:01:18;;;;;;;3.03;0.95;;;;;;;;;;7363796;19;153679;-13
2022/03/02 15:03:52;;;;;;;0.80;0.80;;;;;;;;;;7363157;19;162084;-13
2022/03/02 15:06:25;;;;;;;2.28;0.70;;;;;;;;;;7357198;19;162546;-26
2022/03/02 15:09:00;;;;;;;1.75;0.82;;;;;;;;;;7334754;19;154238;-13
2022/03/02 15:11:50;;;;;;;2.80;0.95;;;;;;;;;;7334523;19;153519;-14
2022/03/02 15:17:09;;;;;;;1.13;0.70;;;;;;;;;;7332090;19;162395;-14
2022/03/02 15:19:43;;;;;;;1.38;0.60;;;;;;;;;;7334149;19;153948;-14
2022/03/02 15:22:17;;;;;;;2.58;0.80;;;;;;;;;;7334089;19;153617;-15
2022/03/02 15:24:54;;;;;;;1.60;1.10;;;;;;;;;;7333496;19;162174;-13
2022/03/02 15:27:27;;;;;;;1.63;1.00;;;;;;;;;;7333790;19;162374;-13
2022/03/02 15:30:11;;;;;;;0.80;0.65;;;;;;;;;;7333803;19;154061;-13
2022/03/02 15:32:43;;;;;;;2.63;0.80;;;;;;;;;;7333922;19;153808;-14
2022/03/02 15:35:21;;;;;;;1.52;0.73;;;;;;;;;;7333185;19;161890;-13
2022/03/02 15:37:55;;;;;;;0.70;0.70;;;;;;;;;;7329940;19;162367;-13
2022/03/02 15:40:35;;;;;;;1.90;1.00;;;;;;;;;;7333623;19;154089;-13
2022/03/02 15:43:08;;;;;;;2.08;0.90;;;;;;;;;;7333638;19;153507;-13
2022/03/02 15:45:40;;;;;;;1.13;0.70;;;;;;;;;;7333239;19;161898;-13
2022/03/02 15:48:19;;;;;;;1.02;0.70;;;;;;;;;;7333081;19;162443;-13
2022/03/02 15:50:52;;;;;;;1.65;0.90;;;;;;;;;;7333510;19;153953;-13
2022/03/02 15:53:26;;;;;;;2.15;0.90;;;;;;;;;;7333131;19;153488;-13
2022/03/02 15:56:02;;;;;;;0.90;0.80;;;;;;;;;;7332196;19;161899;-15
2022/03/02 15:58:36;;;;;;;1.27;0.85;;;;;;;;;;7331394;19;162355;-14
2022/03/02 16:01:07;;;;;;;;;;;;;;;;;;7332314;19;153954;-14
2022/03/02 16:03:38;;;;;;;1.58;0.90;;;;;;;;;;7333078;19;153488;-14
2022/03/02 16:06:13;;;;;;;2.22;0.80;;;;;;;;;;7331006;19;162243;-14
2022/03/02 16:08:44;;;;;;;2.55;0.90;;;;;;;;;;7332070;19;162632;-14
2022/03/02 16:11:21;;;;;;;1.75;0.90;;;;;;;;;;7332793;19;154120;-15
2022/03/02 16:14:02;;;;;;;1.65;0.75;;;;;;;;;;7332745;19;153645;-14
2022/03/02 16:16:39;;;;;;;3.00;1.00;;;;;;;;;;7331471;19;161811;-15
2022/03/02 16:19:13;;;;;;;1.70;0.75;;;;;;;;;;7329249;19;162425;-13
2022/03/02 16:21:46;;;;;;;0.90;0.65;;;;;;;;;;7332200;19;153944;-14
2022/03/02 16:24:30;;;;;;;1.27;0.73;;;;;;;;;;7332295;19;153532;-13
2022/03/02 16:27:18;;;;;;;1.92;0.80;;;;;;;;;;7331636;19;162024;-13
2022/03/02 16:29:51;;;;;;;1.73;1.00;;;;;;;;;;7331516;19;162510;-13
2022/03/02 16:32:23;;;;;;;1.55;0.82;;;;;;;;;;7331726;19;154186;-15
2022/03/02 16:34:56;;;;;;;1.63;0.82;;;;;;;;;;7331440;19;153564;-14
2022/03/02 16:37:29;;;;;;;1.27;0.88;;;;;;;;;;7329654;19;161794;-15
2022/03/02 16:40:02;;;;;;;2.13;0.70;;;;;;;;;;7331050;19;162506;-14
2022/03/02 16:42:36;;;;;;;3.63;0.90;;;;;;;;;;7330614;19;153905;-15
2022/03/02 16:45:08;;;;;;;1.38;0.73;;;;;;;;;;7331340;19;153601;-14
2022/03/02 16:47:40;;;;;;;2.55;0.70;;;;;;;;;;7330797;19;161834;-15
2022/03/02 16:50:12;;;;;;;1.75;0.70;;;;;;;;;;7329636;19;162722;-21
2022/03/02 16:52:44;;;;;;;1.17;0.60;;;;;;;;;;7331167;19;153974;-14
2022/03/02 16:55:16;;;;;;;0.88;0.77;;;;;;;;;;7331387;19;153525;-15
2022/03/02 16:57:51;;;;;;;2.00;0.75;;;;;;;;;;7329099;19;161842;-14
2022/03/02 17:00:30;;;;;;;1.95;0.70;;;;;;;;;;7330577;19;162414;-15
2022/03/02 17:03:03;;;;;;;0.80;0.73;;;;;;;;;;7330468;19;153905;-20
2022/03/02 17:05:34;;;;;;;0.82;0.70;;;;;;;;;;7329726;19;153786;-15
2022/03/02 17:08:06;;;;;;;0.73;0.60;;;;;;;;;;7330271;19;161778;-15
2022/03/02 17:10:38;;;;;;;1.17;0.80;;;;;;;;;;7330258;19;162578;-14
2022/03/02 17:13:12;;;;;;;1.52;0.88;;;;;;;;;;7330585;19;154021;-14
2022/03/02 17:15:43;;;;;;;2.13;1.00;;;;;;;;;;7330506;19;153637;-16
2022/03/02 17:18:15;;;;;;;0.85;0.68;;;;;;;;;;7327890;19;162117;-16
2022/03/02 17:20:46;;;;;;;2.00;0.80;;;;;;;;;;7329856;19;162338;-16
2022/03/02 17:23:18;;;;;;;1.73;0.90;;;;;;;;;;7330440;19;154239;-15
2022/03/02 17:25:49;;;;;;;1.65;0.85;;;;;;;;;;7330426;19;153510;-16
2022/03/02 17:28:23;;;;;;;1.30;0.90;;;;;;;;;;7329826;19;161988;-15
2022/03/02 17:30:54;;;;;;;4.25;1.17;;;;;;;;;;7328996;19;162512;-15
2022/03/02 17:33:26;;;;;;;2.92;1.25;;;;;;;;;;7330059;19;153902;-15
2022/03/02 17:35:57;;;;;;;2.78;1.02;;;;;;;;;;7329772;19;153887;-14
2022/03/02 17:38:29;;;;;;;2.17;1.08;;;;;;;;;;7327835;19;161873;-16
2022/03/02 17:41:02;;;;;;;2.03;0.80;;;;;;;;;;7329512;19;162652;-18
2022/03/02 17:43:36;;;;;;;1.13;0.73;;;;;;;;;;7329978;19;153949;-16
2022/03/02 17:46:08;;;;;;;4.45;1.30;;;;;;;;;;7329933;19;153450;-15
2022/03/02 17:48:39;;;;;;;1.33;1.08;;;;;;;;;;7329281;19;161913;-15
2022/03/02 17:51:10;;;;;;;3.05;1.52;;;;;;;;;;7329421;19;162466;-17
2022/03/02 17:53:42;;;;;;;1.80;1.10;;;;;;;;;;7329337;19;153882;-16
2022/03/02 17:56:13;;;;;;;2.78;0.80;;;;;;;;;;7329555;19;153547;-16
2022/03/02 17:58:47;;;;;;;1.10;0.70;;;;;;;;;;7327398;19;162202;-15
2022/03/02 18:01:21;;;;;;;1.08;0.80;;;;;;;;;;7329144;19;162367;-16
2022/03/02 18:03:53;;;;;;;4.13;1.08;;;;;;;;;;7329319;19;153991;-15
2022/03/02 18:06:25;;;;;;;1.30;1.15;;;;;;;;;;7327234;19;153633;-15
2022/03/02 18:08:56;;;;;;;3.85;1.23;;;;;;;;;;7328845;19;161859;-15
2022/03/02 18:11:27;;;;;;;3.63;1.00;;;;;;;;;;7328683;19;162560;-15
2022/03/02 18:14:05;;;;;;;1.73;1.38;;;;;;;;;;7329022;19;154138;-15
2022/03/02 18:16:36;;;;;;;1.33;1.23;;;;;;;;;;7328691;19;153841;-15
2022/03/02 18:19:09;;;;;;;3.20;0.90;;;;;;;;;;7326555;19;161821;-13
2022/03/02 18:21:41;;;;;;;4.38;1.23;;;;;;;;;;7328434;19;162408;-14
2022/03/02 18:24:14;;;;;;;1.98;1.30;;;;;;;;;;7328402;19;153963;-13
2022/03/02 18:26:51;;;;;;;3.13;1.15;;;;;;;;;;7328536;19;153500;-14
2022/03/02 18:29:29;;;;;;;1.48;1.08;;;;;;;;;;7326935;19;162103;-15
2022/03/02 18:32:03;;;;;;;4.80;1.23;;;;;;;;;;7327877;19;162530;-14
2022/03/02 18:34:35;;;;;;;1.85;1.27;;;;;;;;;;7328364;19;154361;-13
2022/03/02 18:37:07;;;;;;;2.93;0.90;;;;;;;;;;7328176;19;153526;-14
2022/03/02 18:39:39;;;;;;;1.65;1.17;;;;;;;;;;7325811;19;161970;-14
2022/03/02 18:42:10;;;;;;;2.28;1.13;;;;;;;;;;7328711;19;162370;-14
2022/03/02 18:44:44;;;;;;;2.72;1.27;;;;;;;;;;7335129;19;154256;-14
2022/03/02 18:47:16;;;;;;;1.52;1.08;;;;;;;;;;7333886;19;153624;-15
2022/03/02 18:49:51;;;;;;;2.42;0.98;;;;;;;;;;7333066;19;161793;-26
2022/03/02 18:52:23;;;;;;;1.10;1.00;;;;;;;;;;7334362;19;162628;-15
2022/03/02 18:54:56;;;;;;;1.80;1.00;;;;;;;;;;7334680;19;154007;-14
2022/03/02 18:57:27;;;;;;;1.20;1.10;;;;;;;;;;7334533;19;153496;-14
2022/03/02 19:00:02;;;;;;;2.65;1.27;;;;;;;;;;7332234;19;161820;-15
2022/03/02 19:02:37;;;;;;;1.95;1.20;;;;;;;;;;7333975;19;162368;-13
2022/03/02 19:05:09;;;;;;;1.38;1.23;;;;;;;;;;7332776;19;154176;-15
2022/03/02 19:07:41;;;;;;;2.20;1.33;;;;;;;;;;7334474;19;153671;-15
2022/03/02 19:10:14;;;;;;;2.83;1.20;;;;;;;;;;7333877;19;161919;-14
2022/03/02 19:12:45;;;;;;;2.17;1.13;;;;;;;;;;7333829;19;162379;-15
2022/03/02 19:15:21;;;;;;;4.22;1.45;;;;;;;;;;7332955;19;154129;-15
2022/03/02 19:17:53;;;;;;;1.30;1.20;;;;;;;;;;7334098;19;153582;-14
2022/03/02 19:20:25;;;;;;;2.00;0.97;;;;;;;;;;7330180;19;162002;-14
2022/03/02 19:23:00;;;;;;;1.25;1.02;;;;;;;;;;7333606;19;162453;-14
2022/03/02 19:25:35;;;;;;;1.60;1.50;;;;;;;;;;7333954;19;153953;-14
2022/03/02 19:28:07;;;;;;;2.15;1.13;;;;;;;;;;7333808;19;153715;-16
2022/03/02 19:30:41;;;;;;;1.75;1.27;;;;;;;;;;7333185;19;161857;-14
2022/03/02 19:33:12;;;;;;;1.80;1.20;;;;;;;;;;7333262;19;162443;-14
2022/03/02 19:35:44;;;;;;;3.60;1.80;;;;;;;;;;7333386;19;154002;-16
2022/03/02 19:40:58;;;;;;;2.25;1.65;;;;;;;;;;7333042;19;161929;-15
2022/03/02 19:43:30;;;;;;;2.58;1.55;;;;;;;;;;7332632;19;162317;-14
2022/03/02 19:46:06;;;;;;;2.15;1.45;;;;;;;;;;7333241;19;154403;-21
2022/03/02 19:48:38;;;;;;;3.22;1.63;;;;;;;;;;7332086;19;153547;-15
2022/03/02 19:51:11;;;;;;;2.42;1.77;;;;;;;;;;7332723;19;161936;-20
2022/03/02 19:53:42;;;;;;;3.08;2.08;;;;;;;;;;7332231;19;162570;-14
2022/03/02 19:56:14;;;;;;;2.17;1.75;;;;;;;;;;7331939;19;154036;-14
2022/03/02 19:58:46;;;;;;;4.93;1.88;;;;;;;;;;7332645;19;153602;-14
2022/03/02 20:01:20;;;;;;;2.92;1.80;;;;;;;;;;7332476;19;161855;-13
2022/03/02 20:03:51;;;;;;;2.75;1.65;;;;;;;;;;7332313;19;162368;-15
2022/03/02 20:06:23;;;;;;;4.15;2.80;;;;;;;;;;7330110;19;154113;-14
2022/03/02 20:08:54;;;;;;;3.00;2.75;;;;;;;;;;7331273;19;153718;-14
2022/03/02 20:11:26;;;;;;;4.70;3.38;;;;;;;;;;7332140;19;161817;-15
2022/03/02 20:13:57;;;;;;;3.17;2.85;;;;;;;;;;7331588;19;162459;-15
2022/03/02 20:16:31;;;;;;;3.88;3.35;;;;;;;;;;7331933;19;154016;-15
2022/03/02 20:19:03;;;;;;;3.17;2.90;;;;;;;;;;7331635;19;153513;-13
2022/03/02 20:21:34;;;;;;;7.00;3.80;;;;;;;;;;7331619;19;161891;-14
2022/03/02 20:24:07;;;;;;;4.18;3.78;;;;;;;;;;7331330;19;162395;-14
2022/03/02 20:26:38;;;;;;;3.53;3.22;;;;;;;;;;7332016;19;153938;-14
2022/03/02 20:29:10;;;;;;;5.97;3.58;;;;;;;;;;7331681;19;153798;-15
2022/03/02 20:31:45;;;;;;;6.13;4.20;;;;;;;;;;7333039;19;161830;-15
2022/03/02 20:34:16;;;;;;;5.45;3.88;;;;;;;;;;7330590;19;162331;-15
2022/03/02 20:36:50;;;;;;;6.22;3.17;;;;;;;;;;7330813;19;154032;-15
2022/03/02 20:39:21;;;;;;;6.75;3.78;;;;;;;;;;7331055;19;153565;-14
2022/03/02 20:41:53;;;;;;;5.25;3.20;;;;;;;;;;7331286;19;162216;-15
2022/03/02 20:44:25;;;;;;;3.57;2.80;;;;;;;;;;7334322;19;162417;-14
2022/03/02 20:46:59;;;;;;;4.70;2.80;;;;;;;;;;7333114;19;153972;-14
2022/03/02 20:49:30;;;;;;;20.95;6.55;;;;;;;;;;7334116;19;153616;-14
2022/03/02 20:52:01;;;;;;;43.00;14.00;;;;;;;;;;7333975;19;161887;-14
2022/03/02 20:54:33;;;;;;;44.33;15.57;;;;;;;;;;7333816;19;162658;-14
2022/03/02 20:57:07;;;;;;;57.20;16.20;;;;;;;;;;7335458;19;154103;-14
2022/03/02 20:59:39;;;;;;;56.25;18.20;;;;;;;;;;7332616;19;153800;-14
2022/03/02 21:02:14;;;;;;;57.80;19.48;;;;;;;;;;7329876;19;161851;-15
2022/03/02 21:04:45;;;;;;;59.67;16.83;;;;;;;;;;7331159;19;162696;-14
2022/03/02 21:07:17;;;;;;;58.00;19.70;;;;;;;;;;7327931;19;154168;-13
2022/03/02 21:09:48;;;;;;;69.47;20.23;;;;;;;;;;7330609;19;153558;-14
2022/03/02 21:12:19;;;;;;;55.83;19.13;;;;;;;;;;7330576;19;162097;-14
2022/03/02 21:14:50;;;;;;;63.45;19.05;;;;;;;;;;7333001;19;162373;-14
2022/03/02 21:17:24;;;;;;;61.25;19.50;;;;;;;;;;7332303;19;154002;-14
2022/03/02 21:19:58;;;;;;;53.72;17.23;;;;;;;;;;7333805;19;153595;-14
2022/03/02 21:22:29;;;;;;;51.08;17.05;;;;;;;;;;7329442;19;162087;-14
2022/03/02 21:25:01;;;;;;;54.25;17.65;;;;;;;;;;7330457;19;162399;-14
2022/03/02 21:27:32;;;;;;;58.17;18.38;;;;;;;;;;7333147;19;154314;-15
2022/03/02 21:30:04;;;;;;;57.45;17.85;;;;;;;;;;7330148;19;153944;-14
2022/03/02 21:32:39;;;;;;;51.97;17.30;;;;;;;;;;7331626;19;161827;-14
2022/03/02 21:35:11;;;;;;;48.45;17.52;;;;;;;;;;7329931;19;163698;-16
2022/03/02 21:37:44;;;;;;;46.97;17.73;;;;;;;;;;7329918;19;153979;-15
2022/03/02 21:40:16;;;;;;;48.10;16.38;;;;;;;;;;7330397;19;153568;-15
2022/03/02 21:42:48;;;;;;;44.00;15.67;;;;;;;;;;7332713;19;161801;-14
2022/03/02 21:45:20;;;;;;;40.00;14.80;;;;;;;;;;7331349;19;162610;-14
2022/03/02 21:47:54;;;;;;;49.50;16.80;;;;;;;;;;7331566;19;154214;-18
2022/03/02 21:50:25;;;;;;;40.95;14.23;;;;;;;;;;7332233;19;153500;-15
2022/03/02 21:52:57;;;;;;;38.22;14.93;;;;;;;;;;7332488;19;161987;-15
2022/03/02 21:55:29;;;;;;;45.80;17.27;;;;;;;;;;7331400;19;162628;-15
2022/03/02 21:58:00;;;;;;;46.97;14.88;;;;;;;;;;7332477;19;153752;-15
2022/03/02 22:00:31;;;;;;;34.60;13.57;;;;;;;;;;7332626;19;153739;-15
2022/03/02 22:03:06;;;;;;;41.00;13.73;;;;;;;;;;7332050;19;162004;-15
2022/03/02 22:05:37;;;;;;;43.22;15.07;;;;;;;;;;7330925;19;162377;-15
2022/03/02 22:08:09;;;;;;;40.92;14.52;;;;;;;;;;7332668;19;154150;-14
2022/03/02 22:10:40;;;;;;;37.08;12.57;;;;;;;;;;7331778;19;153619;-15
2022/03/02 22:13:11;;;;;;;45.05;15.20;;;;;;;;;;7328891;19;162005;-16
2022/03/02 22:15:43;;;;;;;38.92;13.82;;;;;;;;;;7331007;19;162514;-16
2022/03/02 22:18:17;;;;;;;37.28;14.20;;;;;;;;;;7336505;19;153967;-26
2022/03/02 22:20:48;;;;;;;37.67;12.93;;;;;;;;;;7338575;19;153757;-16
2022/03/02 22:23:20;;;;;;;44.33;13.05;;;;;;;;;;7338201;19;161966;-16
2022/03/02 22:25:51;;;;;;;36.58;12.98;;;;;;;;;;7337925;19;162408;-14
2022/03/02 22:28:24;;;;;;;40.25;14.15;;;;;;;;;;7338830;19;154014;-15
2022/03/02 22:30:56;;;;;;;37.85;12.68;;;;;;;;;;7337550;19;153587;-15
2022/03/02 22:33:30;;;;;;;37.95;14.23;;;;;;;;;;7337130;19;162619;-16
2022/03/02 22:36:01;;;;;;;40.35;13.38;;;;;;;;;;7338274;19;164100;-15
2022/03/02 22:38:36;;;;;;;37.27;14.37;;;;;;;;;;7337427;19;155096;-15
2022/03/02 22:41:10;;;;;;;39.03;14.10;;;;;;;;;;7335691;19;153695;-15
2022/03/02 22:43:42;;;;;;;31.75;12.35;;;;;;;;;;7337502;19;162009;-16
2022/03/02 22:46:18;;;;;;;34.47;12.07;;;;;;;;;;7337092;19;162544;-15
2022/03/02 22:48:52;;;;;;;36.40;12.93;;;;;;;;;;7338346;19;154122;-15
2022/03/02 22:51:24;;;;;;;32.78;12.25;;;;;;;;;;7334671;19;153631;-16
2022/03/02 22:53:55;;;;;;;29.35;12.25;;;;;;;;;;7336418;19;162035;-16
2022/03/02 22:56:26;;;;;;;30.88;12.77;;;;;;;;;;7334564;19;162740;-16
2022/03/02 22:58:58;;;;;;;34.53;11.25;;;;;;;;;;7334693;19;153751;-16
2022/03/02 23:15:15;;;;;;;30.17;11.15;;;;;;;;;;7334065;19;162025;-16
2022/03/02 23:17:46;;;;;;;29.75;10.95;;;;;;;;;;7335245;19;162418;-16
2022/03/02 23:20:20;;;;;;;29.73;11.93;;;;;;;;;;7334373;19;154450;-15
2022/03/02 23:22:52;;;;;;;24.50;9.30;;;;;;;;;;7334033;19;153616;-15
2022/03/02 23:25:24;;;;;;;26.63;10.13;;;;;;;;;;7332589;19;161746;-16
2022/03/02 23:27:55;;;;;;;26.95;11.00;;;;;;;;;;7332549;19;162512;-15
2022/03/02 23:30:27;;;;;;;31.63;11.00;;;;;;;;;;7332601;19;153944;-16
2022/03/02 23:32:58;;;;;;;24.65;10.90;;;;;;;;;;7335629;19;153947;-15
2022/03/02 23:35:33;;;;;;;24.40;10.43;;;;;;;;;;7333149;19;162239;-17
2022/03/02 23:38:05;;;;;;;24.65;10.75;;;;;;;;;;7333050;19;162520;-14
2022/03/02 23:40:37;;;;;;;24.73;9.57;;;;;;;;;;7334032;19;153973;-15
2022/03/02 23:43:11;;;;;;;28.38;10.27;;;;;;;;;;7332139;19;153605;-15
2022/03/02 23:45:43;;;;;;;26.05;11.82;;;;;;;;;;7333267;19;161817;-16
2022/03/02 23:48:15;;;;;;;24.65;9.52;;;;;;;;;;7335891;19;162529;-15
2022/03/02 23:50:49;;;;;;;26.20;9.68;;;;;;;;;;7333190;19;154283;-14
2022/03/02 23:53:20;;;;;;;24.23;10.40;;;;;;;;;;7332879;19;153394;-15
2022/03/02 23:55:52;;;;;;;23.05;9.85;;;;;;;;;;7333372;19;161975;-15
2022/03/02 23:58:23;;;;;;;20.98;9.25;;;;;;;;;;7320853;19;162573;-14
